createdAt,value
2022-09-23T00:01:25.379Z,12.79
2022-09-23T00:03:52.495Z,12.84
2022-09-23T00:06:24.088Z,12.48
2022-09-23T00:08:54.320Z,12.77
2022-09-23T00:11:25.957Z,12.64
2022-09-23T00:13:57.582Z,12.73
2022-09-23T00:16:32.685Z,12.66
2022-09-23T00:19:04.337Z,12.43
2022-09-23T00:21:31.505Z,12.23
2022-09-23T00:23:58.777Z,12.22
2022-09-23T00:26:25.891Z,11.67
2022-09-23T00:28:53.192Z,12.01
2022-09-23T00:31:27.372Z,12.22
2022-09-23T00:34:01.769Z,12.39
2022-09-23T00:36:33.413Z,12.33
2022-09-23T00:39:00.654Z,12.27
2022-09-23T00:41:28.080Z,12.20
2022-09-23T00:44:23.426Z,12.28
2022-09-23T00:46:50.732Z,12.34
2022-09-23T00:49:30.357Z,12.24
2022-09-23T00:52:09.211Z,12.11
2022-09-23T00:54:36.261Z,12.17
2022-09-23T00:57:05.760Z,11.82
2022-09-23T00:59:33.055Z,11.98
2022-09-23T01:02:02.353Z,12.20
2022-09-23T01:04:30.605Z,12.17
2022-09-23T01:06:57.577Z,11.68
2022-09-23T01:09:27.522Z,11.45
2022-09-23T01:12:39.804Z,11.58
2022-09-23T01:15:24.216Z,11.37
2022-09-23T01:18:08.867Z,11.49
2022-09-23T01:21:08.322Z,11.14
2022-09-23T01:24:08.322Z,11.24
2022-09-23T01:27:01.024Z,11.45
2022-09-23T01:29:56.081Z,11.15
2022-09-23T01:32:49.456Z,11.20
2022-09-23T01:36:13.006Z,11.21
2022-09-23T01:39:11.920Z,11.20
2022-09-23T01:41:59.783Z,10.91
2022-09-23T01:44:56.587Z,11.31
2022-09-23T01:47:44.281Z,11.47
2022-09-23T01:50:44.837Z,11.09
2022-09-23T01:53:20.998Z,11.41
2022-09-23T01:56:00.349Z,11.12
2022-09-23T01:58:53.945Z,11.35
2022-09-23T02:01:54.082Z,10.75
2022-09-23T02:04:36.754Z,11.22
2022-09-23T02:07:22.050Z,11.37
2022-09-23T02:09:59.385Z,11.40
2022-09-23T02:12:30.399Z,11.06
2022-09-23T02:15:08.687Z,11.26
2022-09-23T02:17:55.714Z,11.14
2022-09-23T02:20:29.741Z,11.32
2022-09-23T02:23:36.155Z,11.26
2022-09-23T02:26:34.585Z,11.22
2022-09-23T02:29:08.142Z,11.28
2022-09-23T02:31:45.650Z,11.15
2022-09-23T02:34:53.133Z,10.94
2022-09-23T02:37:44.046Z,10.97
2022-09-23T02:40:52.493Z,10.97
2022-09-23T02:43:36.251Z,10.96
2022-09-23T02:46:04.981Z,11.08
2022-09-23T02:49:00.802Z,10.89
2022-09-23T02:51:38.253Z,10.94
2022-09-23T02:54:10.683Z,10.99
2022-09-23T02:56:38.005Z,10.82
2022-09-23T02:59:09.563Z,10.90
2022-09-23T03:02:02.177Z,10.82
2022-09-23T03:04:52.078Z,10.73
2022-09-23T03:07:57.498Z,10.59
2022-09-23T03:11:04.422Z,10.61
2022-09-23T03:13:42.638Z,10.46
2022-09-23T03:16:48.027Z,10.60
2022-09-23T03:20:04.561Z,10.56
2022-09-23T03:22:46.981Z,10.45
2022-09-23T03:25:18.154Z,10.41
2022-09-23T03:27:45.796Z,10.43
2022-09-23T03:30:13.821Z,10.41
2022-09-23T03:32:47.985Z,10.26
2022-09-23T03:35:15.004Z,10.38
2022-09-23T03:38:01.050Z,10.37
2022-09-23T03:40:33.655Z,10.36
2022-09-23T03:43:04.535Z,10.26
2022-09-23T03:45:36.653Z,10.20
2022-09-23T03:48:04.486Z,10.07
2022-09-23T03:50:31.590Z,10.12
2022-09-23T03:52:59.445Z,10.21
2022-09-23T03:55:26.470Z,10.16
2022-09-23T03:57:53.718Z,10.16
2022-09-23T04:00:20.779Z,10.21
2022-09-23T04:02:48.428Z,10.12
2022-09-23T04:05:15.568Z,10.14
2022-09-23T04:07:42.665Z,10.00
2022-09-23T04:10:10.989Z,9.98
2022-09-23T04:12:44.063Z,10.05
2022-09-23T04:15:11.322Z,9.90
2022-09-23T04:17:38.540Z,9.84
2022-09-23T04:20:06.437Z,9.50
2022-09-23T04:22:35.167Z,9.82
2022-09-23T04:25:02.479Z,9.47
2022-09-23T04:27:31.292Z,9.76
2022-09-23T04:30:01.422Z,9.62
2022-09-23T04:32:28.438Z,9.81
2022-09-23T04:34:55.398Z,9.72
2022-09-23T04:37:22.477Z,9.77
2022-09-23T04:39:49.443Z,9.68
2022-09-23T04:42:16.451Z,9.79
2022-09-23T04:44:43.418Z,9.91
2022-09-23T04:47:10.423Z,9.74
2022-09-23T04:49:38.421Z,9.85
2022-09-23T04:52:05.798Z,9.81
2022-09-23T04:54:33.024Z,10.10
2022-09-23T04:57:00.100Z,10.09
2022-09-23T04:59:27.113Z,9.66
2022-09-23T05:01:55.513Z,10.08
2022-09-23T05:04:22.929Z,10.17
2022-09-23T05:06:49.960Z,10.39
2022-09-23T05:09:18.221Z,10.03
2022-09-23T05:11:46.035Z,10.40
2022-09-23T05:14:13.500Z,10.46
2022-09-23T05:16:40.928Z,10.52
2022-09-23T05:19:08.356Z,10.52
2022-09-23T05:21:36.694Z,10.47
2022-09-23T05:24:03.927Z,10.40
2022-09-23T05:26:32.622Z,10.65
2022-09-23T05:29:00.423Z,10.72
2022-09-23T05:31:30.426Z,10.38
2022-09-23T05:34:04.930Z,10.09
2022-09-23T05:36:38.805Z,10.75
2022-09-23T05:39:08.251Z,10.84
2022-09-23T05:41:36.599Z,11.01
2022-09-23T05:44:04.255Z,10.97
2022-09-23T05:46:32.124Z,11.29
2022-09-23T05:49:08.163Z,11.48
2022-09-23T05:51:35.972Z,11.31
2022-09-23T05:54:08.447Z,11.54
2022-09-23T05:56:37.354Z,11.73
2022-09-23T05:59:06.437Z,11.84
2022-09-23T06:01:36.797Z,11.61
2022-09-23T06:04:07.831Z,11.72
2022-09-23T06:06:41.592Z,12.08
2022-09-23T06:09:13.565Z,12.25
2022-09-23T06:11:41.670Z,12.38
2022-09-23T06:14:14.685Z,12.20
2022-09-23T06:16:41.788Z,12.51
2022-09-23T06:19:10.162Z,12.74
2022-09-23T06:21:39.599Z,13.68
2022-09-23T06:24:08.166Z,14.53
2022-09-23T06:26:37.990Z,15.57
2022-09-23T06:29:12.260Z,17.13
2022-09-23T06:31:41.249Z,18.07
2022-09-23T06:34:13.459Z,18.39
2022-09-23T06:36:45.338Z,19.08
2022-09-23T06:39:15.137Z,20.62
2022-09-23T06:41:43.371Z,21.15
2022-09-23T06:44:10.519Z,20.78
2022-09-23T06:46:37.688Z,20.97
2022-09-23T06:49:04.714Z,21.95
2022-09-23T06:51:32.136Z,22.96
2022-09-23T06:53:59.128Z,22.88
2022-09-23T06:56:26.263Z,23.57
2022-09-23T06:58:53.501Z,24.42
2022-09-23T07:01:20.737Z,25.42
2022-09-23T07:03:48.648Z,26.14
2022-09-23T07:06:17.265Z,25.94
2022-09-23T07:08:47.255Z,26.44
2022-09-23T07:11:15.976Z,27.17
2022-09-23T07:13:43.663Z,27.88
2022-09-23T07:16:11.784Z,27.24
2022-09-23T07:18:39.777Z,27.89
2022-09-23T07:21:17.040Z,27.48
2022-09-23T07:23:46.982Z,27.40
2022-09-23T07:26:23.215Z,28.60
2022-09-23T07:29:04.870Z,29.02
2022-09-23T07:31:39.946Z,29.29
2022-09-23T07:34:11.528Z,30.27
2022-09-23T07:36:40.838Z,29.95
2022-09-23T07:39:12.130Z,29.40
2022-09-23T07:41:39.847Z,28.58
2022-09-23T07:44:07.033Z,29.32
2022-09-23T07:46:36.513Z,28.49
2022-09-23T07:49:05.467Z,28.85
2022-09-23T07:51:39.334Z,27.78
2022-09-23T07:54:12.159Z,28.42
2022-09-23T07:56:41.826Z,29.67
2022-09-23T07:59:18.203Z,30.37
2022-09-23T08:01:52.725Z,30.58
2022-09-23T08:04:23.388Z,30.61
2022-09-23T08:07:00.835Z,31.40
2022-09-23T08:09:43.605Z,32.35
2022-09-23T08:12:23.113Z,31.73
2022-09-23T08:14:50.106Z,31.33
2022-09-23T08:17:17.072Z,30.42
2022-09-23T08:19:44.089Z,31.49
2022-09-23T08:22:12.403Z,31.61
2022-09-23T08:24:39.561Z,31.66
2022-09-23T08:27:06.558Z,31.50
2022-09-23T08:29:33.891Z,32.21
2022-09-23T08:32:01.425Z,32.04
2022-09-23T08:34:28.817Z,30.48
2022-09-23T08:36:55.856Z,31.02
2022-09-23T08:39:23.599Z,31.78
2022-09-23T08:41:59.114Z,31.08
2022-09-23T08:44:57.272Z,32.06
2022-09-23T08:47:45.842Z,31.75
2022-09-23T08:50:27.146Z,31.97
2022-09-23T08:53:02.787Z,33.65
2022-09-23T08:55:46.776Z,32.12
2022-09-23T08:58:26.805Z,31.71
2022-09-23T09:01:16.471Z,32.70
2022-09-23T09:03:48.087Z,32.17
2022-09-23T09:06:52.240Z,31.67
2022-09-23T09:09:56.807Z,31.64
2022-09-23T09:12:47.234Z,32.04
2022-09-23T09:15:24.955Z,31.47
2022-09-23T09:18:13.986Z,31.68
2022-09-23T09:21:42.477Z,32.04
2022-09-23T09:24:21.847Z,31.29
2022-09-23T09:26:48.893Z,32.31
2022-09-23T09:29:35.485Z,32.47
2022-09-23T09:32:34.031Z,31.63
2022-09-23T09:35:21.417Z,32.35
2022-09-23T09:37:48.544Z,32.13
2022-09-23T09:40:20.790Z,31.83
2022-09-23T09:42:50.327Z,31.34
2022-09-23T09:46:08.377Z,31.08
2022-09-23T09:48:53.722Z,32.11
2022-09-23T09:51:24.275Z,32.49
2022-09-23T09:53:56.111Z,32.19
2022-09-23T09:56:34.545Z,32.41
2022-09-23T09:59:16.837Z,32.70
2022-09-23T10:01:43.896Z,32.81
2022-09-23T10:04:35.029Z,30.26
2022-09-23T10:07:14.403Z,29.90
2022-09-23T10:09:50.211Z,30.43
2022-09-23T10:12:21.468Z,30.26
2022-09-23T10:14:58.868Z,30.46
2022-09-23T10:17:34.110Z,31.64
2022-09-23T10:20:08.255Z,32.35
2022-09-23T10:22:42.552Z,30.93
2022-09-23T10:25:19.270Z,28.82
2022-09-23T10:27:46.933Z,29.88
2022-09-23T10:30:25.792Z,29.10
2022-09-23T10:32:58.214Z,29.89
2022-09-23T10:35:26.672Z,30.48
2022-09-23T10:37:55.387Z,31.53
2022-09-23T10:41:02.762Z,30.27
2022-09-23T10:44:45.826Z,30.50
2022-09-23T10:48:01.403Z,29.93
2022-09-23T10:50:48.654Z,30.74
2022-09-23T10:53:29.052Z,29.34
2022-09-23T10:56:28.832Z,29.82
2022-09-23T10:59:27.995Z,30.24
2022-09-23T11:02:36.006Z,30.43
2022-09-23T11:05:26.522Z,28.96
2022-09-23T11:10:46.512Z,27.07
2022-09-23T11:13:30.044Z,26.76
2022-09-23T11:18:59.676Z,27.37
2022-09-23T11:21:51.890Z,28.07
2022-09-23T11:24:50.177Z,28.29
2022-09-23T11:27:59.516Z,27.79
2022-09-23T11:31:04.368Z,28.60
2022-09-23T11:34:01.731Z,29.75
2022-09-23T11:36:42.075Z,29.49
2022-09-23T11:39:23.294Z,28.37
2022-09-23T11:42:04.812Z,28.42
2022-09-23T11:44:45.280Z,28.77
2022-09-23T11:47:54.388Z,28.68
2022-09-23T11:50:30.314Z,28.72
2022-09-23T11:53:23.795Z,28.22
2022-09-23T11:56:05.611Z,25.87
2022-09-23T11:58:49.446Z,26.72
2022-09-23T12:01:37.000Z,26.92
2022-09-23T12:04:53.287Z,26.77
2022-09-23T12:07:39.367Z,27.99
2022-09-23T12:10:09.351Z,28.21
2022-09-23T12:13:05.013Z,29.21
2022-09-23T12:16:31.578Z,29.70
2022-09-23T12:19:37.180Z,28.93
2022-09-23T12:22:29.069Z,29.29
2022-09-23T12:25:43.276Z,25.58
2022-09-23T12:28:23.473Z,27.77
2022-09-23T12:30:54.650Z,28.51
2022-09-23T12:33:30.372Z,28.57
2022-09-23T12:36:07.969Z,29.62
2022-09-23T12:38:49.507Z,29.33
2022-09-23T12:41:37.682Z,29.69
2022-09-23T12:44:42.259Z,29.25
2022-09-23T12:47:15.310Z,28.99
2022-09-23T12:49:43.739Z,29.37
2022-09-23T12:52:16.707Z,29.06
2022-09-23T12:54:49.915Z,28.25
2022-09-23T12:57:35.132Z,27.11
2022-09-23T13:00:13.961Z,26.85
2022-09-23T13:03:21.658Z,26.41
2022-09-23T13:06:12.119Z,26.46
2022-09-23T13:08:42.256Z,26.51
2022-09-23T13:11:31.879Z,26.91
2022-09-23T13:14:04.799Z,27.48
2022-09-23T13:16:46.738Z,27.47
2022-09-23T13:19:25.832Z,28.00
2022-09-23T13:22:11.476Z,28.14
2022-09-23T13:24:54.164Z,28.20
2022-09-23T13:27:24.494Z,29.13
2022-09-23T13:29:59.601Z,28.81
2022-09-23T13:32:35.632Z,29.25
2022-09-23T13:35:06.992Z,29.32
2022-09-23T13:37:48.898Z,28.95
2022-09-23T13:40:27.781Z,28.96
2022-09-23T13:43:01.782Z,28.39
2022-09-23T13:45:33.957Z,29.17
2022-09-23T13:48:10.623Z,29.07
2022-09-23T13:50:48.652Z,29.80
2022-09-23T13:53:28.424Z,29.87
2022-09-23T13:56:17.912Z,28.93
2022-09-23T13:58:45.099Z,29.79
2022-09-23T14:01:34.832Z,28.81
2022-09-23T14:04:02.772Z,29.19
2022-09-23T14:06:40.980Z,29.32
2022-09-23T14:09:08.168Z,28.13
2022-09-23T14:11:35.636Z,28.09
2022-09-23T14:14:07.903Z,27.36
2022-09-23T14:16:40.876Z,26.62
2022-09-23T14:19:19.823Z,26.54
2022-09-23T14:21:55.759Z,26.15
2022-09-23T14:24:30.900Z,25.93
2022-09-23T14:27:06.650Z,25.81
2022-09-23T14:29:38.301Z,25.72
2022-09-23T14:32:18.823Z,26.15
2022-09-23T14:35:00.965Z,25.94
2022-09-23T14:37:57.657Z,25.82
2022-09-23T14:40:50.835Z,25.86
2022-09-23T14:43:28.240Z,25.39
2022-09-23T14:45:58.564Z,25.65
2022-09-23T14:48:31.500Z,24.67
2022-09-23T14:51:14.473Z,24.85
2022-09-23T14:53:48.800Z,24.76
2022-09-23T14:56:18.383Z,25.04
2022-09-23T14:58:55.199Z,25.80
2022-09-23T15:01:31.449Z,26.41
2022-09-23T15:04:21.559Z,27.07
2022-09-23T15:06:58.806Z,26.55
2022-09-23T15:09:45.785Z,26.42
2022-09-23T15:12:21.230Z,26.68
2022-09-23T15:14:56.897Z,27.51
2022-09-23T15:17:23.860Z,27.37
2022-09-23T15:19:58.447Z,26.66
2022-09-23T15:22:26.615Z,26.51
2022-09-23T15:25:10.842Z,26.03
2022-09-23T15:27:37.845Z,25.96
2022-09-23T15:30:17.109Z,25.72
2022-09-23T15:32:45.594Z,25.01
2022-09-23T15:35:19.206Z,24.59
2022-09-23T15:37:51.826Z,24.75
2022-09-23T15:40:31.314Z,24.32
2022-09-23T15:43:01.437Z,24.50
2022-09-23T15:45:36.390Z,24.26
2022-09-23T15:48:11.947Z,23.73
2022-09-23T15:50:42.549Z,23.47
2022-09-23T15:53:26.224Z,23.33
2022-09-23T15:55:54.122Z,22.93
2022-09-23T15:58:22.606Z,22.86
2022-09-23T16:00:55.909Z,22.97
2022-09-23T16:03:33.690Z,22.75
2022-09-23T16:06:03.239Z,22.74
2022-09-23T16:08:32.937Z,22.65
2022-09-23T16:11:02.977Z,22.38
2022-09-23T16:13:29.947Z,22.07
2022-09-23T16:15:57.095Z,22.01
2022-09-23T16:18:26.590Z,21.89
2022-09-23T16:20:54.741Z,21.90
2022-09-23T16:23:39.932Z,21.63
2022-09-23T16:26:24.329Z,21.49
2022-09-23T16:28:54.198Z,21.42
2022-09-23T16:31:25.497Z,21.27
2022-09-23T16:33:53.855Z,21.07
2022-09-23T16:36:23.017Z,20.82
2022-09-23T16:38:55.523Z,20.23
2022-09-23T16:41:33.901Z,19.43
2022-09-23T16:44:05.483Z,19.32
2022-09-23T16:46:33.266Z,19.38
